createdAt,value
2023-05-24T00:01:28.197Z,8.4
2023-05-24T00:07:05.546Z,8.3
2023-05-24T00:12:56.849Z,8.2
2023-05-24T00:18:33.828Z,8.1
2023-05-24T00:24:27.248Z,8
2023-05-24T00:30:19.370Z,8
2023-05-24T00:35:55.556Z,7.9
2023-05-24T00:41:47.701Z,7.9
2023-05-24T00:47:39.755Z,7.9
2023-05-24T00:53:32.766Z,7.8
2023-05-24T00:59:09.414Z,7.8
2023-05-24T01:05:02.677Z,7.6
2023-05-24T01:10:57.202Z,7.6
2023-05-24T01:16:49.001Z,7.6
2023-05-24T01:22:40.400Z,7.6
2023-05-24T01:28:31.169Z,7.5
2023-05-24T01:34:24.029Z,7.4
2023-05-24T01:40:00.660Z,7.4
2023-05-24T01:45:36.611Z,7.3
2023-05-24T01:51:28.446Z,7.2
2023-05-24T01:57:19.798Z,7.1
2023-05-24T02:03:12.382Z,7.2
2023-05-24T02:08:47.885Z,7.1
2023-05-24T02:14:39.566Z,7.1
2023-05-24T02:20:31.497Z,7.3
2023-05-24T02:26:07.572Z,7.4
2023-05-24T02:31:59.353Z,7.4
2023-05-24T02:37:50.738Z,7.3
2023-05-24T02:43:41.578Z,7.3
2023-05-24T02:49:33.803Z,7.1
2023-05-24T02:55:10.142Z,7.2
2023-05-24T03:01:02.014Z,7.1
2023-05-24T03:06:55.244Z,7.1
2023-05-24T03:12:48.674Z,7
2023-05-24T03:18:39.388Z,7
2023-05-24T03:24:32.057Z,7.1
2023-05-24T03:30:23.106Z,7.1
2023-05-24T03:36:14.286Z,7.1
2023-05-24T03:42:06.399Z,7.2
2023-05-24T03:48:12.681Z,7.3
2023-05-24T03:54:04.514Z,7.6
2023-05-24T03:59:58.703Z,7.8
2023-05-24T04:06:03.282Z,8
2023-05-24T04:11:23.731Z,8.3
2023-05-24T04:17:15.772Z,8.6
2023-05-24T04:23:08.828Z,8.9
2023-05-24T04:29:00.565Z,9.3
2023-05-24T04:34:53.106Z,9.5
2023-05-24T04:40:44.751Z,9.9
2023-05-24T04:46:36.540Z,10.9
2023-05-24T04:52:29.297Z,12.2
2023-05-24T04:58:20.261Z,13.6
2023-05-24T05:03:59.486Z,15
2023-05-24T05:09:51.877Z,16.7
2023-05-24T05:15:43.963Z,18.5
2023-05-24T05:21:36.695Z,20.4
2023-05-24T05:27:13.548Z,22.4
2023-05-24T05:32:49.748Z,24.4
2023-05-24T05:38:28.898Z,26.6
2023-05-24T05:44:21.161Z,29
2023-05-24T05:49:58.155Z,31.5
2023-05-24T05:55:48.578Z,34.1
2023-05-24T06:01:40.750Z,36.9
2023-05-24T06:07:34.480Z,40
2023-05-24T06:13:27.416Z,43.2
2023-05-24T06:19:30.930Z,46.1
2023-05-24T06:25:21.668Z,48.6
2023-05-24T06:31:13.139Z,51.3
2023-05-24T06:37:13.035Z,54.9
2023-05-24T06:43:03.980Z,50.9
2023-05-24T06:48:55.820Z,48.2
2023-05-24T06:54:48.248Z,51.3
2023-05-24T07:00:42.589Z,57.1
2023-05-24T07:06:34.691Z,50.1
2023-05-24T07:12:26.770Z,49.7
2023-05-24T07:18:03.293Z,57.1
2023-05-24T07:23:55.616Z,54.3
2023-05-24T07:29:49.552Z,50.4
2023-05-24T07:35:23.970Z,54.9
2023-05-24T07:41:03.601Z,57.1
2023-05-24T07:46:56.133Z,54.1
2023-05-24T07:52:32.437Z,54.3
2023-05-24T07:58:23.934Z,55.3
2023-05-24T08:04:17.361Z,56.3
2023-05-24T08:09:53.160Z,56.8
2023-05-24T08:21:22.335Z,58.6
2023-05-24T08:27:17.352Z,58.9
2023-05-24T08:33:10.957Z,59.3
2023-05-24T08:39:02.175Z,59
2023-05-24T08:44:49.982Z,59.9
2023-05-24T08:50:45.305Z,60.3
2023-05-24T08:56:37.942Z,60.8
2023-05-24T09:02:14.316Z,61.1
2023-05-24T09:07:21.581Z,61.5
2023-05-24T09:13:39.845Z,62.6
2023-05-24T09:19:34.298Z,62.1
2023-05-24T09:25:15.082Z,62.3
2023-05-24T09:31:08.367Z,63.4
2023-05-24T09:36:45.042Z,64.1
2023-05-24T09:42:35.964Z,63.8
2023-05-24T09:47:58.802Z,63.8
2023-05-24T09:53:36.229Z,64.2
2023-05-24T09:59:28.486Z,63.1
2023-05-24T10:05:37.299Z,63.1
2023-05-24T10:11:29.266Z,61.9
2023-05-24T10:17:05.606Z,62.6
2023-05-24T10:46:30.248Z,64.1
2023-05-24T10:52:09.641Z,64.6
2023-05-24T10:57:25.152Z,64.3
2023-05-24T11:03:08.604Z,64.3
2023-05-24T11:08:14.518Z,65
2023-05-24T11:13:20.537Z,65.8
2023-05-24T11:18:44.577Z,65.6
2023-05-24T11:24:06.272Z,63.7
2023-05-24T11:29:42.179Z,63.8
2023-05-24T11:35:40.385Z,64.5
2023-05-24T11:41:11.052Z,64.3
2023-05-24T11:46:48.468Z,64.6
2023-05-24T11:52:35.880Z,64.5
2023-05-24T11:58:12.543Z,64.6
2023-05-24T12:03:53.696Z,64.4
2023-05-24T12:09:31.720Z,64.7
2023-05-24T12:15:21.278Z,65.1
2023-05-24T12:21:16.465Z,65.2
2023-05-24T12:26:55.826Z,65.2
2023-05-24T12:32:33.288Z,64.4
2023-05-24T12:38:10.606Z,63.9
2023-05-24T12:44:20.655Z,63.2
2023-05-24T12:49:57.335Z,63.3
2023-05-24T12:55:33.390Z,63.6
2023-05-24T13:01:11.282Z,63.4
2023-05-24T13:06:33.167Z,62.8
2023-05-24T13:11:54.959Z,57.5
2023-05-24T13:17:32.332Z,59.6
2023-05-24T13:23:24.245Z,57.3
2023-05-24T13:28:58.994Z,54.5
2023-05-24T13:34:50.919Z,50.6
2023-05-24T13:40:28.108Z,45.8
2023-05-24T13:45:49.496Z,40.9
2023-05-24T13:51:24.058Z,36.4
2023-05-24T13:56:46.777Z,33.7
2023-05-24T14:02:12.376Z,32.1
2023-05-24T14:08:04.485Z,30.8
2023-05-24T14:15:00.558Z,30.1
2023-05-24T14:20:22.801Z,29.8
2023-05-24T14:25:44.320Z,29.8
2023-05-24T14:31:05.422Z,30.2
2023-05-24T14:36:27.160Z,31
2023-05-24T14:42:06.180Z,31.9
2023-05-24T14:47:43.057Z,32.8
2023-05-24T14:53:19.058Z,34
2023-05-24T14:58:55.924Z,34.9
2023-05-24T15:04:36.254Z,35.3
2023-05-24T15:10:11.935Z,35.9
2023-05-24T15:15:48.562Z,35.9
2023-05-24T15:21:25.290Z,35.8
2023-05-24T15:27:02.004Z,35.5
2023-05-24T15:32:41.650Z,35.2
2023-05-24T15:38:19.676Z,34.9
2023-05-24T15:43:55.076Z,35.4
2023-05-24T15:49:47.560Z,35.6
2023-05-24T15:56:49.006Z,35.6
2023-05-24T16:02:39.751Z,34.9
2023-05-24T16:08:16.942Z,34.1
2023-05-24T16:13:55.845Z,32.9
2023-05-24T16:19:49.790Z,31.8
2023-05-24T16:25:44.633Z,30.9
2023-05-24T16:31:37.880Z,30
2023-05-24T16:37:48.021Z,29.3
2023-05-24T16:43:39.687Z,28.8
2023-05-24T16:49:16.490Z,28.4
2023-05-24T16:55:07.806Z,28.1
2023-05-24T17:01:02.612Z,27.7
2023-05-24T17:06:58.931Z,27.3
2023-05-24T17:12:49.713Z,26.9
2023-05-24T17:18:41.961Z,26.6
2023-05-24T17:24:33.484Z,26.1
2023-05-24T17:30:13.433Z,25.6
2023-05-24T17:36:05.442Z,25.1
2023-05-24T17:41:57.155Z,24.6
2023-05-24T17:47:52.330Z,24.1
2023-05-24T17:53:47.798Z,23.5
2023-05-24T17:59:23.933Z,23
2023-05-24T18:05:19.204Z,22.4
2023-05-24T18:11:12.548Z,21.8
2023-05-24T18:17:04.705Z,21.2
2023-05-24T18:22:56.598Z,20.7
2023-05-24T18:28:54.067Z,20.3
2023-05-24T18:34:49.223Z,19.8
2023-05-24T18:40:40.811Z,19.4
2023-05-24T18:46:18.712Z,19.1
2023-05-24T18:52:11.165Z,18.9
2023-05-24T19:03:26.425Z,18.5
2023-05-24T19:09:19.821Z,18.3
2023-05-24T19:14:55.939Z,18.2
2023-05-24T19:20:49.328Z,18
2023-05-24T19:26:42.252Z,17.8
2023-05-24T19:32:26.058Z,17.6
2023-05-24T19:38:14.124Z,17.4
2023-05-24T19:43:50.330Z,17.2
2023-05-24T19:49:42.667Z,17.1
2023-05-24T19:55:20.615Z,16.9
2023-05-24T20:00:56.919Z,16.7
2023-05-24T20:06:35.454Z,16.6
2023-05-24T20:12:12.244Z,16.4
2023-05-24T20:17:33.905Z,16.3
2023-05-24T20:23:09.961Z,16.3
2023-05-24T20:28:59.560Z,16.2
2023-05-24T20:34:35.817Z,16.1
2023-05-24T20:40:12.267Z,15.9
2023-05-24T20:45:49.221Z,15.9
2023-05-24T20:51:28.038Z,15.9
2023-05-24T20:57:04.511Z,15.8
2023-05-24T21:02:44.284Z,15.8
2023-05-24T21:08:21.468Z,15.8
2023-05-24T21:13:42.655Z,15.8
2023-05-24T21:19:04.539Z,15.8
2023-05-24T21:24:25.357Z,15.8
2023-05-24T21:30:01.062Z,15.6
2023-05-24T21:35:38.434Z,15.5
2023-05-24T21:41:14.055Z,15.3
2023-05-24T21:46:50.645Z,15.1
2023-05-24T21:52:42.916Z,15.1
2023-05-24T21:58:37.840Z,15
2023-05-24T22:04:30.713Z,14.9
2023-05-24T22:10:22.304Z,14.7
2023-05-24T22:16:13.593Z,14.5
2023-05-24T22:22:13.465Z,14.4
2023-05-24T22:28:06.578Z,14.2
2023-05-24T22:33:44.049Z,14
2023-05-24T22:39:35.108Z,13.8
2023-05-24T22:44:56.637Z,13.6
2023-05-24T22:50:48.594Z,13.4
